PWSweather.com
Personal Weather Stations
Station Observations
DW6359
Southwest Cambria, Cambria, WI 53923

Southwest CambriaCambria, WI 53923

Lat: 43.541194, Lon: -89.11275

Elevation: 945

Station Type: Davis Vantage Pro2

http://home.centurytel.net/weathercambria/wxcambria.html

High Low Average
Temperature 15.1°F-9.4°C -4.1°F-20.1°C 6.9°F-13.9°C
Dew Point 6.4°F-14.2°C -7.9°F-22.2°C -0.4°F-18.0°C
Winds 7.0 mph 11.3 kmh Calm Calm 1.0 mph SW1.6 kmh SW
Wind Gusts 11.0 mph17.7 kmh -- 1.0 mph1.6 kmh
Humidity 95% 45% 73%
Pressure 30.61 in1036.6 mb 30.36 in1028.1 mb -
Precipitation 0.00 in0.0 mm - -
Hour Temp Dew Point Humidity Winds Wind Gusts Pressure Precip Precip Rate Daily Precip Total
12:00 AM 9.9°F-12.3°C 6.3°F-14.3°C 85% 2.0 mph WSW3.2 kmh WSW -- 30.34 in1027.4 mb 0.00 in0.0 mm 0.00 in0.0 mm 0.00 in0.0 mm
12:05 AM 9.9°F-12.3°C 6.3°F-14.3°C 85% 3.0 mph WSW4.8 kmh WSW -- 30.35 in1027.8 mb 0.00 in0.0 mm 0.00 in0.0 mm 0.00 in0.0 mm
12:10 AM 9.9°F-12.3°C 6.3°F-14.3°C 85% 4.0 mph WSW6.4 kmh WSW -- 30.35 in1027.8 mb 0.00 in0.0 mm 0.00 in0.0 mm 0.00 in0.0 mm
12:15 AM 9.9°F-12.3°C 6.3°F-14.3°C 85% 1.0 mph WSW1.6 kmh WSW -- 30.35 in1027.8 mb 0.00 in0.0 mm 0.00 in0.0 mm 0.00 in0.0 mm
12:20 AM 9.9°F-12.3°C 6.3°F-14.3°C 85% 2.0 mph W3.2 kmh W -- 30.35 in1027.8 mb 0.00 in0.0 mm 0.00 in0.0 mm 0.00 in0.0 mm
12:25 AM 9.9°F-12.3°C 6.3°F-14.3°C 85% 3.0 mph W4.8 kmh W -- 30.35 in1027.8 mb 0.00 in0.0 mm 0.00 in0.0 mm 0.00 in0.0 mm
12:30 AM 9.9°F-12.3°C 6.3°F-14.3°C 85% 4.0 mph W6.4 kmh W -- 30.35 in1027.8 mb 0.00 in0.0 mm 0.00 in0.0 mm 0.00 in0.0 mm
12:35 AM 9.9°F-12.3°C 6.3°F-14.3°C 85% 2.0 mph W3.2 kmh W -- 30.36 in1028.1 mb 0.00 in0.0 mm 0.00 in0.0 mm 0.00 in0.0 mm
12:40 AM 9.9°F-12.3°C 6.3°F-14.3°C 85% Calm Calm 4.0 mph6.4 kmh 30.36 in1028.1 mb 0.00 in0.0 mm 0.00 in0.0 mm 0.00 in0.0 mm
12:45 AM 9.9°F-12.3°C 6.3°F-14.3°C 85% Calm Calm 4.0 mph6.4 kmh 30.36 in1028.1 mb 0.00 in0.0 mm 0.00 in0.0 mm 0.00 in0.0 mm
12:50 AM 10.0°F-12.2°C 6.4°F-14.2°C 85% Calm Calm -- 30.36 in1028.1 mb 0.00 in0.0 mm 0.00 in0.0 mm 0.00 in0.0 mm
12:55 AM 10.0°F-12.2°C 6.4°F-14.2°C 85% 1.0 mph W1.6 kmh W -- 30.36 in1028.1 mb 0.00 in0.0 mm 0.00 in0.0 mm 0.00 in0.0 mm
01:00 AM 10.0°F-12.2°C 6.4°F-14.2°C 85% 2.0 mph WSW3.2 kmh WSW -- 30.36 in1028.1 mb 0.00 in0.0 mm 0.00 in0.0 mm 0.00 in0.0 mm
01:05 AM 9.0°F-12.8°C 5.9°F-14.5°C 87% 1.0 mph W1.6 kmh W -- 30.36 in1028.1 mb 0.00 in0.0 mm 0.00 in0.0 mm 0.00 in0.0 mm
01:10 AM 9.1°F-12.7°C 6.0°F-14.4°C 87% Calm Calm -- 30.37 in1028.4 mb 0.00 in0.0 mm 0.00 in0.0 mm 0.00 in0.0 mm
01:15 AM 9.1°F-12.7°C 6.0°F-14.4°C 87% 3.0 mph WNW4.8 kmh WNW -- 30.37 in1028.4 mb 0.00 in0.0 mm 0.00 in0.0 mm 0.00 in0.0 mm
01:20 AM 9.1°F-12.7°C 6.0°F-14.4°C 87% 1.0 mph W1.6 kmh W -- 30.37 in1028.4 mb 0.00 in0.0 mm 0.00 in0.0 mm 0.00 in0.0 mm
01:25 AM 9.1°F-12.7°C 6.0°F-14.4°C 87% 2.0 mph WNW3.2 kmh WNW -- 30.37 in1028.4 mb 0.00 in0.0 mm 0.00 in0.0 mm 0.00 in0.0 mm
01:30 AM 9.1°F-12.7°C 5.8°F-14.6°C 86% 1.0 mph WNW1.6 kmh WNW 6.0 mph9.7 kmh 30.37 in1028.4 mb 0.00 in0.0 mm 0.00 in0.0 mm 0.00 in0.0 mm
01:35 AM 10.2°F-12.1°C 6.3°F-14.3°C 84% 2.0 mph W3.2 kmh W 6.0 mph9.7 kmh 30.38 in1028.8 mb 0.00 in0.0 mm 0.00 in0.0 mm 0.00 in0.0 mm
01:40 AM 10.1°F-12.2°C 6.2°F-14.3°C 84% 3.0 mph W4.8 kmh W -- 30.38 in1028.8 mb 0.00 in0.0 mm 0.00 in0.0 mm 0.00 in0.0 mm
01:45 AM 10.0°F-12.2°C 6.1°F-14.4°C 84% 4.0 mph W6.4 kmh W -- 30.37 in1028.4 mb 0.00 in0.0 mm 0.00 in0.0 mm 0.00 in0.0 mm
01:50 AM 9.9°F-12.3°C 6.1°F-14.4°C 84% 2.0 mph W3.2 kmh W -- 30.37 in1028.4 mb 0.00 in0.0 mm 0.00 in0.0 mm 0.00 in0.0 mm
01:55 AM 9.7°F-12.4°C 5.9°F-14.5°C 84% 2.0 mph W3.2 kmh W -- 30.37 in1028.4 mb 0.00 in0.0 mm 0.00 in0.0 mm 0.00 in0.0 mm
02:00 AM 9.5°F-12.5°C 5.7°F-14.6°C 84% Calm Calm -- 30.37 in1028.4 mb 0.00 in0.0 mm 0.00 in0.0 mm 0.00 in0.0 mm
02:05 AM 9.2°F-12.7°C 5.4°F-14.8°C 84% 4.0 mph W6.4 kmh W -- 30.38 in1028.8 mb 0.00 in0.0 mm 0.00 in0.0 mm 0.00 in0.0 mm
02:10 AM 8.8°F-12.9°C 5.0°F-15.0°C 84% 2.0 mph W3.2 kmh W -- 30.38 in1028.8 mb 0.00 in0.0 mm 0.00 in0.0 mm 0.00 in0.0 mm
02:15 AM 8.5°F-13.1°C 4.7°F-15.2°C 84% Calm Calm -- 30.38 in1028.8 mb 0.00 in0.0 mm 0.00 in0.0 mm 0.00 in0.0 mm
02:20 AM 8.2°F-13.2°C 4.4°F-15.3°C 84% Calm Calm 3.0 mph4.8 kmh 30.38 in1028.8 mb 0.00 in0.0 mm 0.00 in0.0 mm 0.00 in0.0 mm
02:25 AM 8.0°F-13.3°C 4.2°F-15.4°C 84% Calm Calm 3.0 mph4.8 kmh 30.38 in1028.8 mb 0.00 in0.0 mm 0.00 in0.0 mm 0.00 in0.0 mm
02:30 AM 7.6°F-13.6°C 3.8°F-15.7°C 84% Calm Calm -- 30.38 in1028.8 mb 0.00 in0.0 mm 0.00 in0.0 mm 0.00 in0.0 mm
02:35 AM 7.2°F-13.8°C 3.4°F-15.9°C 84% Calm Calm -- 30.38 in1028.8 mb 0.00 in0.0 mm 0.00 in0.0 mm 0.00 in0.0 mm
02:40 AM 6.8°F-14.0°C 3.0°F-16.1°C 84% Calm Calm -- 30.38 in1028.8 mb 0.00 in0.0 mm 0.00 in0.0 mm 0.00 in0.0 mm
02:45 AM 6.6°F-14.1°C 2.8°F-16.2°C 84% Calm Calm -- 30.39 in1029.1 mb 0.00 in0.0 mm 0.00 in0.0 mm 0.00 in0.0 mm
02:50 AM 6.4°F-14.2°C 2.9°F-16.2°C 85% Calm Calm -- 30.39 in1029.1 mb 0.00 in0.0 mm 0.00 in0.0 mm 0.00 in0.0 mm
02:55 AM 6.2°F-14.3°C 2.7°F-16.3°C 85% Calm Calm -- 30.39 in1029.1 mb 0.00 in0.0 mm 0.00 in0.0 mm 0.00 in0.0 mm
03:00 AM 5.8°F-14.6°C 2.3°F-16.5°C 85% Calm Calm -- 30.39 in1029.1 mb 0.00 in0.0 mm 0.00 in0.0 mm 0.00 in0.0 mm
03:05 AM 5.5°F-14.7°C 2.0°F-16.7°C 85% Calm Calm -- 30.39 in1029.1 mb 0.00 in0.0 mm 0.00 in0.0 mm 0.00 in0.0 mm
03:10 AM 5.4°F-14.8°C 1.9°F-16.7°C 85% Calm Calm -- 30.40 in1029.5 mb 0.00 in0.0 mm 0.00 in0.0 mm 0.00 in0.0 mm
03:15 AM 5.0°F-15.0°C 1.5°F-16.9°C 85% Calm Calm -- 30.40 in1029.5 mb 0.00 in0.0 mm 0.00 in0.0 mm 0.00 in0.0 mm
03:20 AM 4.6°F-15.2°C 1.1°F-17.2°C 85% Calm Calm -- 30.40 in1029.5 mb 0.00 in0.0 mm 0.00 in0.0 mm 0.00 in0.0 mm
03:25 AM 4.4°F-15.3°C 0.9°F-17.3°C 85% Calm Calm -- 30.40 in1029.5 mb 0.00 in0.0 mm 0.00 in0.0 mm 0.00 in0.0 mm
03:30 AM 4.4°F-15.3°C 0.9°F-17.3°C 85% Calm Calm -- 30.40 in1029.5 mb 0.00 in0.0 mm 0.00 in0.0 mm 0.00 in0.0 mm
03:35 AM 4.5°F-15.3°C 1.3°F-17.1°C 86% Calm Calm -- 30.41 in1029.8 mb 0.00 in0.0 mm 0.00 in0.0 mm 0.00 in0.0 mm
03:40 AM 4.6°F-15.2°C 1.4°F-17.0°C 86% Calm Calm -- 30.41 in1029.8 mb 0.00 in0.0 mm 0.00 in0.0 mm 0.00 in0.0 mm
03:45 AM 4.7°F-15.2°C 1.5°F-16.9°C 86% Calm Calm -- 30.41 in1029.8 mb 0.00 in0.0 mm 0.00 in0.0 mm 0.00 in0.0 mm
03:50 AM 4.8°F-15.1°C 1.5°F-16.9°C 86% Calm Calm -- 30.41 in1029.8 mb 0.00 in0.0 mm 0.00 in0.0 mm 0.00 in0.0 mm
03:55 AM 4.9°F-15.1°C 1.6°F-16.9°C 86% Calm Calm -- 30.41 in1029.8 mb 0.00 in0.0 mm 0.00 in0.0 mm 0.00 in0.0 mm
04:00 AM 5.0°F-15.0°C 1.7°F-16.8°C 86% Calm Calm -- 30.41 in1029.8 mb 0.00 in0.0 mm 0.00 in0.0 mm 0.00 in0.0 mm
04:05 AM 5.0°F-15.0°C 1.7°F-16.8°C 86% Calm Calm -- 30.41 in1029.8 mb 0.00 in0.0 mm 0.00 in0.0 mm 0.00 in0.0 mm
04:10 AM 4.9°F-15.1°C 1.6°F-16.9°C 86% Calm Calm -- 30.41 in1029.8 mb 0.00 in0.0 mm 0.00 in0.0 mm 0.00 in0.0 mm
04:15 AM 4.9°F-15.1°C 1.6°F-16.9°C 86% Calm Calm -- 30.42 in1030.1 mb 0.00 in0.0 mm 0.00 in0.0 mm 0.00 in0.0 mm
04:20 AM 4.8°F-15.1°C 1.5°F-16.9°C 86% Calm Calm -- 30.41 in1029.8 mb 0.00 in0.0 mm 0.00 in0.0 mm 0.00 in0.0 mm
04:25 AM 4.6°F-15.2°C 1.4°F-17.0°C 86% Calm Calm -- 30.41 in1029.8 mb 0.00 in0.0 mm 0.00 in0.0 mm 0.00 in0.0 mm
04:30 AM 4.5°F-15.3°C 1.3°F-17.1°C 86% Calm Calm -- 30.42 in1030.1 mb 0.00 in0.0 mm 0.00 in0.0 mm 0.00 in0.0 mm
04:35 AM 4.6°F-15.2°C 1.4°F-17.0°C 86% Calm Calm -- 30.42 in1030.1 mb 0.00 in0.0 mm 0.00 in0.0 mm 0.00 in0.0 mm
04:40 AM 4.7°F-15.2°C 1.5°F-16.9°C 86% 5.0 mph NW8.0 kmh NW -- 30.42 in1030.1 mb 0.00 in0.0 mm 0.00 in0.0 mm 0.00 in0.0 mm
04:45 AM 4.7°F-15.2°C 1.5°F-16.9°C 86% 3.0 mph WNW4.8 kmh WNW -- 30.43 in1030.5 mb 0.00 in0.0 mm 0.00 in0.0 mm 0.00 in0.0 mm
04:50 AM 4.5°F-15.3°C 1.3°F-17.1°C 86% 2.0 mph W3.2 kmh W 6.0 mph9.7 kmh 30.43 in1030.5 mb 0.00 in0.0 mm 0.00 in0.0 mm 0.00 in0.0 mm
04:55 AM 4.5°F-15.3°C 1.3°F-17.1°C 86% 3.0 mph W4.8 kmh W 6.0 mph9.7 kmh 30.43 in1030.5 mb 0.00 in0.0 mm 0.00 in0.0 mm 0.00 in0.0 mm
05:00 AM 4.4°F-15.3°C 1.2°F-17.1°C 86% 3.0 mph NW4.8 kmh NW -- 30.43 in1030.5 mb 0.00 in0.0 mm 0.00 in0.0 mm 0.00 in0.0 mm
05:05 AM 4.4°F-15.3°C 1.2°F-17.1°C 86% 1.0 mph NW1.6 kmh NW -- 30.44 in1030.8 mb 0.00 in0.0 mm 0.00 in0.0 mm 0.00 in0.0 mm
05:10 AM 4.2°F-15.4°C 1.0°F-17.2°C 86% 2.0 mph W3.2 kmh W -- 30.44 in1030.8 mb 0.00 in0.0 mm 0.00 in0.0 mm 0.00 in0.0 mm
05:15 AM 4.0°F-15.6°C 0.5°F-17.5°C 85% Calm Calm -- 30.44 in1030.8 mb 0.00 in0.0 mm 0.00 in0.0 mm 0.00 in0.0 mm
05:20 AM 3.8°F-15.7°C 0.3°F-17.6°C 85% 3.0 mph WNW4.8 kmh WNW -- 30.44 in1030.8 mb 0.00 in0.0 mm 0.00 in0.0 mm 0.00 in0.0 mm
05:25 AM 3.9°F-15.6°C 0.4°F-17.6°C 85% 2.0 mph WNW3.2 kmh WNW -- 30.44 in1030.8 mb 0.00 in0.0 mm 0.00 in0.0 mm 0.00 in0.0 mm
05:30 AM 4.0°F-15.6°C 0.8°F-17.3°C 86% 5.0 mph NNW8.0 kmh NNW -- 30.43 in1030.5 mb 0.00 in0.0 mm 0.00 in0.0 mm 0.00 in0.0 mm
05:35 AM 4.2°F-15.4°C 1.0°F-17.2°C 86% 5.0 mph N8.0 kmh N -- 30.43 in1030.5 mb 0.00 in0.0 mm 0.00 in0.0 mm 0.00 in0.0 mm
05:40 AM 4.3°F-15.4°C 1.1°F-17.2°C 86% 4.0 mph N6.4 kmh N 11.0 mph17.7 kmh 30.43 in1030.5 mb 0.00 in0.0 mm 0.00 in0.0 mm 0.00 in0.0 mm
05:45 AM 4.3°F-15.4°C 0.8°F-17.3°C 85% 7.0 mph N11.3 kmh N 11.0 mph17.7 kmh 30.44 in1030.8 mb 0.00 in0.0 mm 0.00 in0.0 mm 0.00 in0.0 mm
05:50 AM 4.2°F-15.4°C 0.7°F-17.4°C 85% 4.0 mph NNW6.4 kmh NNW -- 30.44 in1030.8 mb 0.00 in0.0 mm 0.00 in0.0 mm 0.00 in0.0 mm
05:55 AM 4.0°F-15.6°C 0.5°F-17.5°C 85% 4.0 mph NW6.4 kmh NW -- 30.45 in1031.2 mb 0.00 in0.0 mm 0.00 in0.0 mm 0.00 in0.0 mm
06:00 AM 3.9°F-15.6°C 0.4°F-17.6°C 85% 4.0 mph NW6.4 kmh NW -- 30.45 in1031.2 mb 0.00 in0.0 mm 0.00 in0.0 mm 0.00 in0.0 mm
06:05 AM 3.8°F-15.7°C 0.1°F-17.7°C 84% 4.0 mph N6.4 kmh N -- 30.46 in1031.5 mb 0.00 in0.0 mm 0.00 in0.0 mm 0.00 in0.0 mm
06:10 AM 3.6°F-15.8°C -0.1°F-17.8°C 84% 4.0 mph NW6.4 kmh NW -- 30.47 in1031.8 mb 0.00 in0.0 mm 0.00 in0.0 mm 0.00 in0.0 mm
06:15 AM 3.5°F-15.8°C -0.2°F-17.9°C 84% 5.0 mph NW8.0 kmh NW -- 30.47 in1031.8 mb 0.00 in0.0 mm 0.00 in0.0 mm 0.00 in0.0 mm
06:20 AM 3.3°F-15.9°C -0.4°F-18.0°C 84% 3.0 mph NNW4.8 kmh NNW -- 30.47 in1031.8 mb 0.00 in0.0 mm 0.00 in0.0 mm 0.00 in0.0 mm
06:25 AM 3.2°F-16.0°C -0.5°F-18.1°C 84% 3.0 mph NW4.8 kmh NW -- 30.47 in1031.8 mb 0.00 in0.0 mm 0.00 in0.0 mm 0.00 in0.0 mm
06:30 AM 3.0°F-16.1°C -0.7°F-18.2°C 84% 3.0 mph NW4.8 kmh NW 8.0 mph12.9 kmh 30.48 in1032.2 mb 0.00 in0.0 mm 0.00 in0.0 mm 0.00 in0.0 mm
06:35 AM 2.9°F-16.2°C -0.8°F-18.2°C 84% 2.0 mph WNW3.2 kmh WNW 8.0 mph12.9 kmh 30.48 in1032.2 mb 0.00 in0.0 mm 0.00 in0.0 mm 0.00 in0.0 mm
06:40 AM 2.7°F-16.3°C -1.0°F-18.3°C 84% 3.0 mph NW4.8 kmh NW -- 30.49 in1032.5 mb 0.00 in0.0 mm 0.00 in0.0 mm 0.00 in0.0 mm
06:45 AM 2.6°F-16.3°C -1.1°F-18.4°C 84% 2.0 mph W3.2 kmh W -- 30.49 in1032.5 mb 0.00 in0.0 mm 0.00 in0.0 mm 0.00 in0.0 mm
06:50 AM 2.2°F-16.6°C -1.8°F-18.8°C 83% 4.0 mph W6.4 kmh W -- 30.50 in1032.8 mb 0.00 in0.0 mm 0.00 in0.0 mm 0.00 in0.0 mm
06:55 AM 1.9°F-16.7°C -2.1°F-18.9°C 83% 2.0 mph W3.2 kmh W -- 30.51 in1033.2 mb 0.00 in0.0 mm 0.00 in0.0 mm 0.00 in0.0 mm
07:00 AM 1.8°F-16.8°C -2.1°F-18.9°C 83% Calm Calm -- 30.51 in1033.2 mb 0.00 in0.0 mm 0.00 in0.0 mm 0.00 in0.0 mm
07:05 AM 1.6°F-16.9°C -2.3°F-19.1°C 83% 1.0 mph W1.6 kmh W -- 30.52 in1033.5 mb 0.00 in0.0 mm 0.00 in0.0 mm 0.00 in0.0 mm
07:10 AM 1.6°F-16.9°C -2.3°F-19.1°C 83% 1.0 mph W1.6 kmh W -- 30.52 in1033.5 mb 0.00 in0.0 mm 0.00 in0.0 mm 0.00 in0.0 mm
07:15 AM 1.5°F-16.9°C -2.4°F-19.1°C 83% 2.0 mph W3.2 kmh W -- 30.52 in1033.5 mb 0.00 in0.0 mm 0.00 in0.0 mm 0.00 in0.0 mm
07:20 AM 1.3°F-17.1°C -2.6°F-19.2°C 83% 1.0 mph W1.6 kmh W 2.0 mph3.2 kmh 30.53 in1033.9 mb 0.00 in0.0 mm 0.00 in0.0 mm 0.00 in0.0 mm
07:25 AM 1.0°F-17.2°C -2.9°F-19.4°C 83% Calm Calm 2.0 mph3.2 kmh 30.53 in1033.9 mb 0.00 in0.0 mm 0.00 in0.0 mm 0.00 in0.0 mm
07:30 AM 0.8°F-17.3°C -3.1°F-19.5°C 83% Calm Calm -- 30.53 in1033.9 mb 0.00 in0.0 mm 0.00 in0.0 mm 0.00 in0.0 mm
07:35 AM 0.7°F-17.4°C -3.2°F-19.6°C 83% 1.0 mph W1.6 kmh W -- 30.54 in1034.2 mb 0.00 in0.0 mm 0.00 in0.0 mm 0.00 in0.0 mm
07:40 AM 0.4°F-17.6°C -3.5°F-19.7°C 83% 1.0 mph W1.6 kmh W -- 30.54 in1034.2 mb 0.00 in0.0 mm 0.00 in0.0 mm 0.00 in0.0 mm
07:45 AM 0.2°F-17.7°C -3.7°F-19.8°C 83% 1.0 mph W1.6 kmh W -- 30.55 in1034.5 mb 0.00 in0.0 mm 0.00 in0.0 mm 0.00 in0.0 mm
07:50 AM -0.3°F-17.9°C -4.2°F-20.1°C 83% 1.0 mph W1.6 kmh W -- 30.55 in1034.5 mb 0.00 in0.0 mm 0.00 in0.0 mm 0.00 in0.0 mm
07:55 AM -0.8°F-18.2°C -4.7°F-20.4°C 83% Calm Calm -- 30.56 in1034.9 mb 0.00 in0.0 mm 0.00 in0.0 mm 0.00 in0.0 mm
08:00 AM -1.3°F-18.5°C -5.2°F-20.7°C 83% Calm Calm -- 30.56 in1034.9 mb 0.00 in0.0 mm 0.00 in0.0 mm 0.00 in0.0 mm
08:05 AM -1.8°F-18.8°C -5.9°F-21.1°C 82% Calm Calm -- 30.56 in1034.9 mb 0.00 in0.0 mm 0.00 in0.0 mm 0.00 in0.0 mm
08:10 AM -2.3°F-19.1°C -6.4°F-21.3°C 82% 2.0 mph W3.2 kmh W 2.0 mph3.2 kmh 30.56 in1034.9 mb 0.00 in0.0 mm 0.00 in0.0 mm 0.00 in0.0 mm
08:15 AM -2.8°F-19.3°C -6.7°F-21.5°C 83% 2.0 mph W3.2 kmh W 2.0 mph3.2 kmh 30.57 in1035.2 mb 0.00 in0.0 mm 0.00 in0.0 mm 0.00 in0.0 mm
08:20 AM -3.3°F-19.6°C -7.1°F-21.7°C 83% 1.0 mph W1.6 kmh W -- 30.57 in1035.2 mb 0.00 in0.0 mm 0.00 in0.0 mm 0.00 in0.0 mm
08:25 AM -3.6°F-19.8°C -7.4°F-21.9°C 83% 1.0 mph W1.6 kmh W -- 30.57 in1035.2 mb 0.00 in0.0 mm 0.00 in0.0 mm 0.00 in0.0 mm
08:30 AM -3.9°F-19.9°C -7.7°F-22.1°C 83% Calm Calm -- 30.58 in1035.6 mb 0.00 in0.0 mm 0.00 in0.0 mm 0.00 in0.0 mm
08:35 AM -4.1°F-20.1°C -7.9°F-22.2°C 83% Calm Calm -- 30.58 in1035.6 mb 0.00 in0.0 mm 0.00 in0.0 mm 0.00 in0.0 mm
08:40 AM -4.0°F-20.0°C -5.1°F-20.6°C 95% Calm Calm -- 30.57 in1035.2 mb 0.00 in0.0 mm 0.00 in0.0 mm 0.00 in0.0 mm
08:45 AM -3.9°F-19.9°C -7.5°F-21.9°C 84% Calm Calm -- 30.58 in1035.6 mb 0.00 in0.0 mm 0.00 in0.0 mm 0.00 in0.0 mm
08:50 AM -3.8°F-19.9°C -7.4°F-21.9°C 84% Calm Calm -- 30.58 in1035.6 mb 0.00 in0.0 mm 0.00 in0.0 mm 0.00 in0.0 mm
08:55 AM -3.6°F-19.8°C -7.2°F-21.8°C 84% Calm Calm -- 30.59 in1035.9 mb 0.00 in0.0 mm 0.00 in0.0 mm 0.00 in0.0 mm
09:00 AM -3.2°F-19.6°C -6.6°F-21.4°C 85% Calm Calm 2.0 mph3.2 kmh 30.59 in1035.9 mb 0.00 in0.0 mm 0.00 in0.0 mm 0.00 in0.0 mm
09:05 AM -2.9°F-19.4°C -6.3°F-21.3°C 85% Calm Calm 2.0 mph3.2 kmh 30.58 in1035.6 mb 0.00 in0.0 mm 0.00 in0.0 mm 0.00 in0.0 mm
09:10 AM -2.5°F-19.2°C -5.9°F-21.1°C 85% Calm Calm -- 30.59 in1035.9 mb 0.00 in0.0 mm 0.00 in0.0 mm 0.00 in0.0 mm
09:15 AM -2.2°F-19.0°C -5.6°F-20.9°C 85% Calm Calm -- 30.59 in1035.9 mb 0.00 in0.0 mm 0.00 in0.0 mm 0.00 in0.0 mm
09:20 AM -1.9°F-18.8°C -5.3°F-20.7°C 85% Calm Calm -- 30.59 in1035.9 mb 0.00 in0.0 mm 0.00 in0.0 mm 0.00 in0.0 mm
09:25 AM -1.6°F-18.7°C -5.0°F-20.6°C 85% Calm Calm -- 30.58 in1035.6 mb 0.00 in0.0 mm 0.00 in0.0 mm 0.00 in0.0 mm
09:30 AM -1.4°F-18.6°C -4.8°F-20.4°C 85% Calm Calm -- 30.59 in1035.9 mb 0.00 in0.0 mm 0.00 in0.0 mm 0.00 in0.0 mm
09:35 AM -1.0°F-18.3°C -4.4°F-20.2°C 85% Calm Calm -- 30.59 in1035.9 mb 0.00 in0.0 mm 0.00 in0.0 mm 0.00 in0.0 mm
09:40 AM -0.6°F-18.1°C -4.0°F-20.0°C 85% Calm Calm -- 30.58 in1035.6 mb 0.00 in0.0 mm 0.00 in0.0 mm 0.00 in0.0 mm
09:45 AM -0.3°F-17.9°C -3.7°F-19.8°C 85% 1.0 mph W1.6 kmh W -- 30.59 in1035.9 mb 0.00 in0.0 mm 0.00 in0.0 mm 0.00 in0.0 mm
09:50 AM -0.1°F-17.8°C -3.8°F-19.9°C 84% 2.0 mph W3.2 kmh W 4.0 mph6.4 kmh 30.59 in1035.9 mb 0.00 in0.0 mm 0.00 in0.0 mm 0.00 in0.0 mm
09:55 AM 0.1°F-17.7°C -3.6°F-19.8°C 84% 1.0 mph W1.6 kmh W 4.0 mph6.4 kmh 30.59 in1035.9 mb 0.00 in0.0 mm 0.00 in0.0 mm 0.00 in0.0 mm
10:00 AM 0.5°F-17.5°C -3.2°F-19.6°C 84% 2.0 mph NW3.2 kmh NW -- 30.58 in1035.6 mb 0.00 in0.0 mm 0.00 in0.0 mm 0.00 in0.0 mm
10:05 AM 0.9°F-17.3°C -2.8°F-19.3°C 84% 4.0 mph NW6.4 kmh NW -- 30.58 in1035.6 mb 0.00 in0.0 mm 0.00 in0.0 mm 0.00 in0.0 mm
10:10 AM 1.3°F-17.1°C -2.4°F-19.1°C 84% 4.0 mph NNW6.4 kmh NNW -- 30.58 in1035.6 mb 0.00 in0.0 mm 0.00 in0.0 mm 0.00 in0.0 mm
10:15 AM 1.8°F-16.8°C -2.1°F-18.9°C 83% 3.0 mph N4.8 kmh N -- 30.59 in1035.9 mb 0.00 in0.0 mm 0.00 in0.0 mm 0.00 in0.0 mm
10:20 AM 2.1°F-16.6°C -2.1°F-18.9°C 82% Calm Calm -- 30.59 in1035.9 mb 0.00 in0.0 mm 0.00 in0.0 mm 0.00 in0.0 mm
10:25 AM 2.6°F-16.3°C -1.6°F-18.7°C 82% Calm Calm -- 30.59 in1035.9 mb 0.00 in0.0 mm 0.00 in0.0 mm 0.00 in0.0 mm
10:30 AM 3.1°F-16.1°C -1.4°F-18.6°C 81% Calm Calm -- 30.59 in1035.9 mb 0.00 in0.0 mm 0.00 in0.0 mm 0.00 in0.0 mm
10:35 AM 3.2°F-16.0°C -1.6°F-18.7°C 80% Calm Calm -- 30.60 in1036.2 mb 0.00 in0.0 mm 0.00 in0.0 mm 0.00 in0.0 mm
10:40 AM 3.5°F-15.8°C -1.3°F-18.5°C 80% Calm Calm 4.0 mph6.4 kmh 30.60 in1036.2 mb 0.00 in0.0 mm 0.00 in0.0 mm 0.00 in0.0 mm
10:45 AM 3.9°F-15.6°C -1.1°F-18.4°C 79% Calm Calm 4.0 mph6.4 kmh 30.61 in1036.6 mb 0.00 in0.0 mm 0.00 in0.0 mm 0.00 in0.0 mm
10:50 AM 4.2°F-15.4°C -0.8°F-18.2°C 79% Calm Calm -- 30.61 in1036.6 mb 0.00 in0.0 mm 0.00 in0.0 mm 0.00 in0.0 mm
10:55 AM 4.1°F-15.5°C -1.2°F-18.4°C 78% Calm Calm -- 30.61 in1036.6 mb 0.00 in0.0 mm 0.00 in0.0 mm 0.00 in0.0 mm
11:00 AM 4.0°F-15.6°C -1.6°F-18.7°C 77% 2.0 mph WNW3.2 kmh WNW -- 30.61 in1036.6 mb 0.00 in0.0 mm 0.00 in0.0 mm 0.00 in0.0 mm
11:05 AM 3.8°F-15.7°C -1.8°F-18.8°C 77% 2.0 mph W3.2 kmh W -- 30.61 in1036.6 mb 0.00 in0.0 mm 0.00 in0.0 mm 0.00 in0.0 mm
11:10 AM 3.9°F-15.6°C -1.7°F-18.7°C 77% 2.0 mph WNW3.2 kmh WNW -- 30.60 in1036.2 mb 0.00 in0.0 mm 0.00 in0.0 mm 0.00 in0.0 mm
11:15 AM 4.0°F-15.6°C -1.9°F-18.8°C 76% Calm Calm -- 30.60 in1036.2 mb 0.00 in0.0 mm 0.00 in0.0 mm 0.00 in0.0 mm
11:20 AM 4.3°F-15.4°C -1.6°F-18.7°C 76% Calm Calm -- 30.60 in1036.2 mb 0.00 in0.0 mm 0.00 in0.0 mm 0.00 in0.0 mm
11:25 AM 4.5°F-15.3°C -1.4°F-18.6°C 76% Calm Calm -- 30.60 in1036.2 mb 0.00 in0.0 mm 0.00 in0.0 mm 0.00 in0.0 mm
11:30 AM 4.9°F-15.1°C -1.3°F-18.5°C 75% Calm Calm 1.0 mph1.6 kmh 30.60 in1036.2 mb 0.00 in0.0 mm 0.00 in0.0 mm 0.00 in0.0 mm
11:35 AM 5.1°F-14.9°C -1.1°F-18.4°C 75% Calm Calm 1.0 mph1.6 kmh 30.60 in1036.2 mb 0.00 in0.0 mm 0.00 in0.0 mm 0.00 in0.0 mm
11:40 AM 5.4°F-14.8°C -1.1°F-18.4°C 74% Calm Calm -- 30.60 in1036.2 mb 0.00 in0.0 mm 0.00 in0.0 mm 0.00 in0.0 mm
11:45 AM 5.6°F-14.7°C -0.9°F-18.3°C 74% 4.0 mph NNW6.4 kmh NNW -- 30.61 in1036.6 mb 0.00 in0.0 mm 0.00 in0.0 mm 0.00 in0.0 mm
11:50 AM 5.7°F-14.6°C -1.1°F-18.4°C 73% 1.0 mph N1.6 kmh N -- 30.60 in1036.2 mb 0.00 in0.0 mm 0.00 in0.0 mm 0.00 in0.0 mm
11:55 AM 5.9°F-14.5°C -0.9°F-18.3°C 73% Calm Calm -- 30.60 in1036.2 mb 0.00 in0.0 mm 0.00 in0.0 mm 0.00 in0.0 mm
12:00 PM 6.3°F-14.3°C -0.5°F-18.1°C 73% 2.0 mph N3.2 kmh N -- 30.60 in1036.2 mb 0.00 in0.0 mm 0.00 in0.0 mm 0.00 in0.0 mm
12:05 PM 6.4°F-14.2°C -0.7°F-18.2°C 72% 3.0 mph N4.8 kmh N -- 30.60 in1036.2 mb 0.00 in0.0 mm 0.00 in0.0 mm 0.00 in0.0 mm
12:10 PM 6.4°F-14.2°C -0.7°F-18.2°C 72% 3.0 mph NNW4.8 kmh NNW -- 30.60 in1036.2 mb 0.00 in0.0 mm 0.00 in0.0 mm 0.00 in0.0 mm
12:15 PM 6.7°F-14.1°C -0.4°F-18.0°C 72% 3.0 mph N4.8 kmh N -- 30.60 in1036.2 mb 0.00 in0.0 mm 0.00 in0.0 mm 0.00 in0.0 mm
12:20 PM 6.8°F-14.0°C -0.3°F-17.9°C 72% 4.0 mph NNW6.4 kmh NNW 5.0 mph8.0 kmh 30.59 in1035.9 mb 0.00 in0.0 mm 0.00 in0.0 mm 0.00 in0.0 mm
12:25 PM 7.0°F-13.9°C -0.4°F-18.0°C 71% 3.0 mph N4.8 kmh N 5.0 mph8.0 kmh 30.60 in1036.2 mb 0.00 in0.0 mm 0.00 in0.0 mm 0.00 in0.0 mm
12:30 PM 7.3°F-13.7°C -0.1°F-17.8°C 71% 2.0 mph N3.2 kmh N -- 30.60 in1036.2 mb 0.00 in0.0 mm 0.00 in0.0 mm 0.00 in0.0 mm
12:35 PM 7.4°F-13.7°C 0.0°F-17.8°C 71% 4.0 mph NW6.4 kmh NW -- 30.61 in1036.6 mb 0.00 in0.0 mm 0.00 in0.0 mm 0.00 in0.0 mm
12:40 PM 7.6°F-13.6°C -0.1°F-17.8°C 70% 3.0 mph NW4.8 kmh NW -- 30.61 in1036.6 mb 0.00 in0.0 mm 0.00 in0.0 mm 0.00 in0.0 mm
12:45 PM 7.8°F-13.4°C -0.2°F-17.9°C 69% Calm Calm -- 30.61 in1036.6 mb 0.00 in0.0 mm 0.00 in0.0 mm 0.00 in0.0 mm
12:50 PM 7.9°F-13.4°C -0.4°F-18.0°C 68% 2.0 mph NNW3.2 kmh NNW -- 30.60 in1036.2 mb 0.00 in0.0 mm 0.00 in0.0 mm 0.00 in0.0 mm
12:55 PM 7.9°F-13.4°C -0.7°F-18.2°C 67% 3.0 mph N4.8 kmh N -- 30.60 in1036.2 mb 0.00 in0.0 mm 0.00 in0.0 mm 0.00 in0.0 mm
01:00 PM 7.9°F-13.4°C -1.4°F-18.6°C 65% 4.0 mph NW6.4 kmh NW -- 30.60 in1036.2 mb 0.00 in0.0 mm 0.00 in0.0 mm 0.00 in0.0 mm
01:05 PM 8.1°F-13.3°C -0.9°F-18.3°C 66% Calm Calm -- 30.60 in1036.2 mb 0.00 in0.0 mm 0.00 in0.0 mm 0.00 in0.0 mm
01:10 PM 8.2°F-13.2°C -1.1°F-18.4°C 65% Calm Calm 5.0 mph8.0 kmh 30.60 in1036.2 mb 0.00 in0.0 mm 0.00 in0.0 mm 0.00 in0.0 mm
01:15 PM 8.8°F-12.9°C -2.2°F-19.0°C 60% 1.0 mph E1.6 kmh E 5.0 mph8.0 kmh 30.60 in1036.2 mb 0.00 in0.0 mm 0.00 in0.0 mm 0.00 in0.0 mm
01:20 PM 8.9°F-12.8°C -2.1°F-18.9°C 60% 1.0 mph E1.6 kmh E -- 30.60 in1036.2 mb 0.00 in0.0 mm 0.00 in0.0 mm 0.00 in0.0 mm
01:25 PM 9.1°F-12.7°C -2.6°F-19.2°C 58% Calm Calm -- 30.59 in1035.9 mb 0.00 in0.0 mm 0.00 in0.0 mm 0.00 in0.0 mm
01:30 PM 9.1°F-12.7°C -2.6°F-19.2°C 58% Calm Calm -- 30.59 in1035.9 mb 0.00 in0.0 mm 0.00 in0.0 mm 0.00 in0.0 mm
01:35 PM 9.8°F-12.3°C -2.0°F-18.9°C 58% Calm Calm -- 30.60 in1036.2 mb 0.00 in0.0 mm 0.00 in0.0 mm 0.00 in0.0 mm
01:40 PM 10.2°F-12.1°C -2.0°F-18.9°C 57% Calm Calm -- 30.59 in1035.9 mb 0.00 in0.0 mm 0.00 in0.0 mm 0.00 in0.0 mm
01:45 PM 10.9°F-11.7°C -2.4°F-19.1°C 54% 4.0 mph S6.4 kmh S -- 30.59 in1035.9 mb 0.00 in0.0 mm 0.00 in0.0 mm 0.00 in0.0 mm
01:50 PM 10.9°F-11.7°C -2.1°F-18.9°C 55% 2.0 mph SW3.2 kmh SW -- 30.59 in1035.9 mb 0.00 in0.0 mm 0.00 in0.0 mm 0.00 in0.0 mm
01:55 PM 11.3°F-11.5°C -1.3°F-18.5°C 56% 3.0 mph SSW4.8 kmh SSW -- 30.59 in1035.9 mb 0.00 in0.0 mm 0.00 in0.0 mm 0.00 in0.0 mm
02:00 PM 11.5°F-11.4°C -1.9°F-18.8°C 54% 1.0 mph S1.6 kmh S 3.0 mph4.8 kmh 30.59 in1035.9 mb 0.00 in0.0 mm 0.00 in0.0 mm 0.00 in0.0 mm
02:05 PM 11.8°F-11.2°C -1.2°F-18.4°C 55% Calm Calm 3.0 mph4.8 kmh 30.58 in1035.6 mb 0.00 in0.0 mm 0.00 in0.0 mm 0.00 in0.0 mm
02:10 PM 12.8°F-10.7°C -0.7°F-18.2°C 54% Calm Calm -- 30.58 in1035.6 mb 0.00 in0.0 mm 0.00 in0.0 mm 0.00 in0.0 mm
02:15 PM 12.8°F-10.7°C -0.7°F-18.2°C 54% 4.0 mph SW6.4 kmh SW -- 30.58 in1035.6 mb 0.00 in0.0 mm 0.00 in0.0 mm 0.00 in0.0 mm
02:20 PM 12.2°F-11.0°C -2.0°F-18.9°C 52% 3.0 mph SW4.8 kmh SW -- 30.58 in1035.6 mb 0.00 in0.0 mm 0.00 in0.0 mm 0.00 in0.0 mm
02:25 PM 12.0°F-11.1°C -2.2°F-19.0°C 52% 1.0 mph SE1.6 kmh SE -- 30.57 in1035.2 mb 0.00 in0.0 mm 0.00 in0.0 mm 0.00 in0.0 mm
02:30 PM 11.9°F-11.2°C -1.9°F-18.8°C 53% 2.0 mph S3.2 kmh S -- 30.57 in1035.2 mb 0.00 in0.0 mm 0.00 in0.0 mm 0.00 in0.0 mm
02:35 PM 11.9°F-11.2°C -2.3°F-19.1°C 52% 2.0 mph SSE3.2 kmh SSE -- 30.57 in1035.2 mb 0.00 in0.0 mm 0.00 in0.0 mm 0.00 in0.0 mm
02:40 PM 11.7°F-11.3°C -2.9°F-19.4°C 51% 1.0 mph S1.6 kmh S -- 30.57 in1035.2 mb 0.00 in0.0 mm 0.00 in0.0 mm 0.00 in0.0 mm
02:45 PM 12.1°F-11.1°C -2.1°F-18.9°C 52% 1.0 mph S1.6 kmh S -- 30.56 in1034.9 mb 0.00 in0.0 mm 0.00 in0.0 mm 0.00 in0.0 mm
02:50 PM 12.1°F-11.1°C -2.1°F-18.9°C 52% 1.0 mph WSW1.6 kmh WSW 3.0 mph4.8 kmh 30.56 in1034.9 mb 0.00 in0.0 mm 0.00 in0.0 mm 0.00 in0.0 mm
02:55 PM 12.5°F-10.8°C -1.7°F-18.7°C 52% Calm Calm 3.0 mph4.8 kmh 30.55 in1034.5 mb 0.00 in0.0 mm 0.00 in0.0 mm 0.00 in0.0 mm
03:00 PM 12.1°F-11.1°C -2.9°F-19.4°C 50% Calm Calm -- 30.55 in1034.5 mb 0.00 in0.0 mm 0.00 in0.0 mm 0.00 in0.0 mm
03:05 PM 13.2°F-10.4°C -0.7°F-18.2°C 53% Calm Calm -- 30.56 in1034.9 mb 0.00 in0.0 mm 0.00 in0.0 mm 0.00 in0.0 mm
03:10 PM 13.6°F-10.2°C -2.4°F-19.1°C 48% Calm Calm -- 30.56 in1034.9 mb 0.00 in0.0 mm 0.00 in0.0 mm 0.00 in0.0 mm
03:15 PM 14.0°F-10.0°C -1.6°F-18.7°C 49% 2.0 mph SSW3.2 kmh SSW -- 30.55 in1034.5 mb 0.00 in0.0 mm 0.00 in0.0 mm 0.00 in0.0 mm
03:20 PM 13.9°F-10.1°C -3.0°F-19.4°C 46% 1.0 mph SSE1.6 kmh SSE -- 30.55 in1034.5 mb 0.00 in0.0 mm 0.00 in0.0 mm 0.00 in0.0 mm
03:25 PM 14.2°F-9.9°C -2.3°F-19.1°C 47% Calm Calm -- 30.55 in1034.5 mb 0.00 in0.0 mm 0.00 in0.0 mm 0.00 in0.0 mm
03:30 PM 14.5°F-9.7°C -2.5°F-19.2°C 46% Calm Calm -- 30.54 in1034.2 mb 0.00 in0.0 mm 0.00 in0.0 mm 0.00 in0.0 mm
03:35 PM 14.3°F-9.8°C -1.8°F-18.8°C 48% 2.0 mph SW3.2 kmh SW -- 30.55 in1034.5 mb 0.00 in0.0 mm 0.00 in0.0 mm 0.00 in0.0 mm
03:40 PM 14.5°F-9.7°C -2.5°F-19.2°C 46% 1.0 mph SE1.6 kmh SE 5.0 mph8.0 kmh 30.54 in1034.2 mb 0.00 in0.0 mm 0.00 in0.0 mm 0.00 in0.0 mm
03:45 PM 14.8°F-9.6°C -1.7°F-18.7°C 47% 1.0 mph NE1.6 kmh NE 5.0 mph8.0 kmh 30.54 in1034.2 mb 0.00 in0.0 mm 0.00 in0.0 mm 0.00 in0.0 mm
03:50 PM 15.0°F-9.4°C -2.0°F-18.9°C 46% 3.0 mph S4.8 kmh S -- 30.55 in1034.5 mb 0.00 in0.0 mm 0.00 in0.0 mm 0.00 in0.0 mm
03:55 PM 15.1°F-9.4°C -1.9°F-18.8°C 46% 3.0 mph S4.8 kmh S -- 30.55 in1034.5 mb 0.00 in0.0 mm 0.00 in0.0 mm 0.00 in0.0 mm
04:00 PM 14.6°F-9.7°C -2.8°F-19.3°C 45% 5.0 mph S8.0 kmh S -- 30.55 in1034.5 mb 0.00 in0.0 mm 0.00 in0.0 mm 0.00 in0.0 mm
04:05 PM 14.3°F-9.8°C -3.1°F-19.5°C 45% 3.0 mph SSW4.8 kmh SSW -- 30.55 in1034.5 mb 0.00 in0.0 mm 0.00 in0.0 mm 0.00 in0.0 mm
04:10 PM 14.1°F-9.9°C -2.4°F-19.1°C 47% 3.0 mph S4.8 kmh S -- 30.55 in1034.5 mb 0.00 in0.0 mm 0.00 in0.0 mm 0.00 in0.0 mm
04:15 PM 14.1°F-9.9°C -2.4°F-19.1°C 47% 5.0 mph S8.0 kmh S -- 30.55 in1034.5 mb 0.00 in0.0 mm 0.00 in0.0 mm 0.00 in0.0 mm
04:20 PM 13.7°F-10.2°C -2.3°F-19.1°C 48% 2.0 mph SSW3.2 kmh SSW -- 30.55 in1034.5 mb 0.00 in0.0 mm 0.00 in0.0 mm 0.00 in0.0 mm
04:25 PM 13.7°F-10.2°C -2.3°F-19.1°C 48% 2.0 mph S3.2 kmh S -- 30.55 in1034.5 mb 0.00 in0.0 mm 0.00 in0.0 mm 0.00 in0.0 mm
04:30 PM 13.7°F-10.2°C -2.3°F-19.1°C 48% 1.0 mph S1.6 kmh S 4.0 mph6.4 kmh 30.55 in1034.5 mb 0.00 in0.0 mm 0.00 in0.0 mm 0.00 in0.0 mm
04:35 PM 14.1°F-9.9°C -1.9°F-18.8°C 48% 1.0 mph SSW1.6 kmh SSW 4.0 mph6.4 kmh 30.54 in1034.2 mb 0.00 in0.0 mm 0.00 in0.0 mm 0.00 in0.0 mm
04:40 PM 15.0°F-9.4°C -1.1°F-18.4°C 48% 2.0 mph S3.2 kmh S -- 30.55 in1034.5 mb 0.00 in0.0 mm 0.00 in0.0 mm 0.00 in0.0 mm
04:45 PM 14.9°F-9.5°C -2.1°F-18.9°C 46% 1.0 mph S1.6 kmh S -- 30.54 in1034.2 mb 0.00 in0.0 mm 0.00 in0.0 mm 0.00 in0.0 mm
04:50 PM 13.9°F-10.1°C -3.0°F-19.4°C 46% Calm Calm -- 30.54 in1034.2 mb 0.00 in0.0 mm 0.00 in0.0 mm 0.00 in0.0 mm
04:55 PM 13.2°F-10.4°C -1.9°F-18.8°C 50% 3.0 mph S4.8 kmh S -- 30.54 in1034.2 mb 0.00 in0.0 mm 0.00 in0.0 mm 0.00 in0.0 mm
05:00 PM 12.7°F-10.7°C -1.6°F-18.7°C 52% 1.0 mph SW1.6 kmh SW -- 30.55 in1034.5 mb 0.00 in0.0 mm 0.00 in0.0 mm 0.00 in0.0 mm
05:05 PM 12.2°F-11.0°C -2.0°F-18.9°C 52% 3.0 mph SSW4.8 kmh SSW -- 30.55 in1034.5 mb 0.00 in0.0 mm 0.00 in0.0 mm 0.00 in0.0 mm
05:10 PM 11.8°F-11.2°C -2.0°F-18.9°C 53% Calm Calm -- 30.54 in1034.2 mb 0.00 in0.0 mm 0.00 in0.0 mm 0.00 in0.0 mm
05:15 PM 11.4°F-11.4°C -2.0°F-18.9°C 54% 1.0 mph SW1.6 kmh SW -- 30.54 in1034.2 mb 0.00 in0.0 mm 0.00 in0.0 mm 0.00 in0.0 mm
05:20 PM 11.2°F-11.6°C -1.8°F-18.8°C 55% 1.0 mph S1.6 kmh S 3.0 mph4.8 kmh 30.54 in1034.2 mb 0.00 in0.0 mm 0.00 in0.0 mm 0.00 in0.0 mm
05:25 PM 11.0°F-11.7°C -1.6°F-18.7°C 56% Calm Calm 3.0 mph4.8 kmh 30.53 in1033.9 mb 0.00 in0.0 mm 0.00 in0.0 mm 0.00 in0.0 mm
05:30 PM 11.4°F-11.4°C 0.6°F-17.4°C 61% Calm Calm -- 30.54 in1034.2 mb 0.00 in0.0 mm 0.00 in0.0 mm 0.00 in0.0 mm
05:35 PM 11.3°F-11.5°C 0.5°F-17.5°C 61% Calm Calm -- 30.53 in1033.9 mb 0.00 in0.0 mm 0.00 in0.0 mm 0.00 in0.0 mm
05:40 PM 11.0°F-11.7°C 0.2°F-17.7°C 61% Calm Calm -- 30.53 in1033.9 mb 0.00 in0.0 mm 0.00 in0.0 mm 0.00 in0.0 mm
05:45 PM 10.8°F-11.8°C 0.0°F-17.8°C 61% Calm Calm -- 30.52 in1033.5 mb 0.00 in0.0 mm 0.00 in0.0 mm 0.00 in0.0 mm
05:50 PM 10.8°F-11.8°C 0.4°F-17.6°C 62% Calm Calm -- 30.53 in1033.9 mb 0.00 in0.0 mm 0.00 in0.0 mm 0.00 in0.0 mm
05:55 PM 10.7°F-11.8°C 0.6°F-17.4°C 63% Calm Calm -- 30.53 in1033.9 mb 0.00 in0.0 mm 0.00 in0.0 mm 0.00 in0.0 mm
06:00 PM 10.4°F-12.0°C 0.3°F-17.6°C 63% Calm Calm -- 30.53 in1033.9 mb 0.00 in0.0 mm 0.00 in0.0 mm 0.00 in0.0 mm
06:05 PM 10.3°F-12.1°C 0.2°F-17.7°C 63% Calm Calm -- 30.53 in1033.9 mb 0.00 in0.0 mm 0.00 in0.0 mm 0.00 in0.0 mm
06:10 PM 10.1°F-12.2°C -0.3°F-17.9°C 62% Calm Calm -- 30.52 in1033.5 mb 0.00 in0.0 mm 0.00 in0.0 mm 0.00 in0.0 mm
06:15 PM 9.9°F-12.3°C -0.1°F-17.8°C 63% Calm Calm -- 30.52 in1033.5 mb 0.00 in0.0 mm 0.00 in0.0 mm 0.00 in0.0 mm
06:20 PM 9.8°F-12.3°C -0.2°F-17.9°C 63% Calm Calm -- 30.52 in1033.5 mb 0.00 in0.0 mm 0.00 in0.0 mm 0.00 in0.0 mm
06:25 PM 9.4°F-12.6°C -0.3°F-17.9°C 64% Calm Calm -- 30.52 in1033.5 mb 0.00 in0.0 mm 0.00 in0.0 mm 0.00 in0.0 mm
06:30 PM 9.1°F-12.7°C -0.2°F-17.9°C 65% Calm Calm -- 30.52 in1033.5 mb 0.00 in0.0 mm 0.00 in0.0 mm 0.00 in0.0 mm
06:35 PM 8.9°F-12.8°C -0.4°F-18.0°C 65% 3.0 mph SSE4.8 kmh SSE -- 30.52 in1033.5 mb 0.00 in0.0 mm 0.00 in0.0 mm 0.00 in0.0 mm
06:40 PM 8.7°F-12.9°C -0.6°F-18.1°C 65% 1.0 mph SSE1.6 kmh SSE -- 30.52 in1033.5 mb 0.00 in0.0 mm 0.00 in0.0 mm 0.00 in0.0 mm
06:45 PM 8.8°F-12.9°C -0.2°F-17.9°C 66% 2.0 mph SSE3.2 kmh SSE -- 30.53 in1033.9 mb 0.00 in0.0 mm 0.00 in0.0 mm 0.00 in0.0 mm
06:50 PM 8.8°F-12.9°C -0.2°F-17.9°C 66% 2.0 mph SSE3.2 kmh SSE -- 30.54 in1034.2 mb 0.00 in0.0 mm 0.00 in0.0 mm 0.00 in0.0 mm
06:55 PM 8.7°F-12.9°C -0.3°F-17.9°C 66% 4.0 mph SSE6.4 kmh SSE -- 30.54 in1034.2 mb 0.00 in0.0 mm 0.00 in0.0 mm 0.00 in0.0 mm
07:00 PM 8.6°F-13.0°C -0.4°F-18.0°C 66% 3.0 mph SSE4.8 kmh SSE 7.0 mph11.3 kmh 30.54 in1034.2 mb 0.00 in0.0 mm 0.00 in0.0 mm 0.00 in0.0 mm
07:05 PM 8.6°F-13.0°C -0.1°F-17.8°C 67% 3.0 mph SSE4.8 kmh SSE 7.0 mph11.3 kmh 30.54 in1034.2 mb 0.00 in0.0 mm 0.00 in0.0 mm 0.00 in0.0 mm
07:10 PM 8.6°F-13.0°C -0.4°F-18.0°C 66% 2.0 mph SSE3.2 kmh SSE -- 30.54 in1034.2 mb 0.00 in0.0 mm 0.00 in0.0 mm 0.00 in0.0 mm
07:15 PM 8.6°F-13.0°C -0.4°F-18.0°C 66% 4.0 mph SSE6.4 kmh SSE -- 30.54 in1034.2 mb 0.00 in0.0 mm 0.00 in0.0 mm 0.00 in0.0 mm
07:20 PM 8.7°F-12.9°C -0.3°F-17.9°C 66% 2.0 mph SSE3.2 kmh SSE -- 30.55 in1034.5 mb 0.00 in0.0 mm 0.00 in0.0 mm 0.00 in0.0 mm
07:25 PM 8.8°F-12.9°C -0.2°F-17.9°C 66% 5.0 mph SSE8.0 kmh SSE -- 30.55 in1034.5 mb 0.00 in0.0 mm 0.00 in0.0 mm 0.00 in0.0 mm
07:30 PM 8.9°F-12.8°C -0.1°F-17.8°C 66% 2.0 mph SSE3.2 kmh SSE -- 30.54 in1034.2 mb 0.00 in0.0 mm 0.00 in0.0 mm 0.00 in0.0 mm
07:35 PM 9.0°F-12.8°C -0.3°F-17.9°C 65% Calm Calm -- 30.54 in1034.2 mb 0.00 in0.0 mm 0.00 in0.0 mm 0.00 in0.0 mm
07:40 PM 9.0°F-12.8°C -0.3°F-17.9°C 65% Calm Calm -- 30.54 in1034.2 mb 0.00 in0.0 mm 0.00 in0.0 mm 0.00 in0.0 mm
07:45 PM 9.0°F-12.8°C -0.3°F-17.9°C 65% Calm Calm -- 30.54 in1034.2 mb 0.00 in0.0 mm 0.00 in0.0 mm 0.00 in0.0 mm
07:50 PM 9.0°F-12.8°C -0.7°F-18.2°C 64% Calm Calm 2.0 mph3.2 kmh 30.54 in1034.2 mb 0.00 in0.0 mm 0.00 in0.0 mm 0.00 in0.0 mm
07:55 PM 9.0°F-12.8°C -0.7°F-18.2°C 64% Calm Calm 2.0 mph3.2 kmh 30.54 in1034.2 mb 0.00 in0.0 mm 0.00 in0.0 mm 0.00 in0.0 mm
08:00 PM 9.0°F-12.8°C -0.7°F-18.2°C 64% Calm Calm -- 30.54 in1034.2 mb 0.00 in0.0 mm 0.00 in0.0 mm 0.00 in0.0 mm
08:05 PM 8.9°F-12.8°C -0.8°F-18.2°C 64% Calm Calm -- 30.53 in1033.9 mb 0.00 in0.0 mm 0.00 in0.0 mm 0.00 in0.0 mm
08:10 PM 8.9°F-12.8°C -0.8°F-18.2°C 64% Calm Calm -- 30.53 in1033.9 mb 0.00 in0.0 mm 0.00 in0.0 mm 0.00 in0.0 mm
08:15 PM 8.9°F-12.8°C -0.8°F-18.2°C 64% Calm Calm -- 30.53 in1033.9 mb 0.00 in0.0 mm 0.00 in0.0 mm 0.00 in0.0 mm
08:20 PM 8.7°F-12.9°C -0.6°F-18.1°C 65% Calm Calm -- 30.52 in1033.5 mb 0.00 in0.0 mm 0.00 in0.0 mm 0.00 in0.0 mm
08:25 PM 8.5°F-13.1°C -0.5°F-18.1°C 66% Calm Calm -- 30.52 in1033.5 mb 0.00 in0.0 mm 0.00 in0.0 mm 0.00 in0.0 mm
08:30 PM 8.5°F-13.1°C -0.5°F-18.1°C 66% Calm Calm -- 30.53 in1033.9 mb 0.00 in0.0 mm 0.00 in0.0 mm 0.00 in0.0 mm
08:35 PM 8.3°F-13.2°C -0.4°F-18.0°C 67% Calm Calm -- 30.53 in1033.9 mb 0.00 in0.0 mm 0.00 in0.0 mm 0.00 in0.0 mm
08:40 PM 8.4°F-13.1°C -0.3°F-17.9°C 67% Calm Calm -- 30.52 in1033.5 mb 0.00 in0.0 mm 0.00 in0.0 mm 0.00 in0.0 mm
08:45 PM 8.4°F-13.1°C 0.0°F-17.8°C 68% Calm Calm -- 30.53 in1033.9 mb 0.00 in0.0 mm 0.00 in0.0 mm 0.00 in0.0 mm
08:50 PM 8.3°F-13.2°C 0.0°F-17.8°C 68% Calm Calm -- 30.52 in1033.5 mb 0.00 in0.0 mm 0.00 in0.0 mm 0.00 in0.0 mm
08:55 PM 8.2°F-13.2°C -0.1°F-17.8°C 68% Calm Calm -- 30.52 in1033.5 mb 0.00 in0.0 mm 0.00 in0.0 mm 0.00 in0.0 mm
09:00 PM 8.1°F-13.3°C 0.1°F-17.7°C 69% Calm Calm -- 30.52 in1033.5 mb 0.00 in0.0 mm 0.00 in0.0 mm 0.00 in0.0 mm
09:05 PM 8.1°F-13.3°C 0.1°F-17.7°C 69% Calm Calm -- 30.52 in1033.5 mb 0.00 in0.0 mm 0.00 in0.0 mm 0.00 in0.0 mm
09:10 PM 8.0°F-13.3°C 0.3°F-17.6°C 70% Calm Calm -- 30.52 in1033.5 mb 0.00 in0.0 mm 0.00 in0.0 mm 0.00 in0.0 mm
09:15 PM 7.8°F-13.4°C 0.1°F-17.7°C 70% Calm Calm -- 30.52 in1033.5 mb 0.00 in0.0 mm 0.00 in0.0 mm 0.00 in0.0 mm
09:20 PM 7.7°F-13.5°C 0.0°F-17.8°C 70% Calm Calm -- 30.52 in1033.5 mb 0.00 in0.0 mm 0.00 in0.0 mm 0.00 in0.0 mm
09:25 PM 7.6°F-13.6°C 0.2°F-17.7°C 71% Calm Calm -- 30.52 in1033.5 mb 0.00 in0.0 mm 0.00 in0.0 mm 0.00 in0.0 mm
09:30 PM 7.7°F-13.5°C 0.6°F-17.4°C 72% Calm Calm -- 30.52 in1033.5 mb 0.00 in0.0 mm 0.00 in0.0 mm 0.00 in0.0 mm
09:35 PM 7.8°F-13.4°C 0.7°F-17.4°C 72% Calm Calm -- 30.52 in1033.5 mb 0.00 in0.0 mm 0.00 in0.0 mm 0.00 in0.0 mm
09:40 PM 7.7°F-13.5°C 0.6°F-17.4°C 72% Calm Calm -- 30.52 in1033.5 mb 0.00 in0.0 mm 0.00 in0.0 mm 0.00 in0.0 mm
09:45 PM 7.7°F-13.5°C 0.6°F-17.4°C 72% Calm Calm -- 30.52 in1033.5 mb 0.00 in0.0 mm 0.00 in0.0 mm 0.00 in0.0 mm
09:50 PM 7.7°F-13.5°C 0.6°F-17.4°C 72% Calm Calm -- 30.52 in1033.5 mb 0.00 in0.0 mm 0.00 in0.0 mm 0.00 in0.0 mm
09:55 PM 7.8°F-13.4°C 0.7°F-17.4°C 72% Calm Calm -- 30.53 in1033.9 mb 0.00 in0.0 mm 0.00 in0.0 mm 0.00 in0.0 mm
10:00 PM 7.9°F-13.4°C 0.8°F-17.3°C 72% Calm Calm -- 30.53 in1033.9 mb 0.00 in0.0 mm 0.00 in0.0 mm 0.00 in0.0 mm
10:05 PM 8.0°F-13.3°C 0.9°F-17.3°C 72% Calm Calm -- 30.53 in1033.9 mb 0.00 in0.0 mm 0.00 in0.0 mm 0.00 in0.0 mm
10:10 PM 8.1°F-13.3°C 1.0°F-17.2°C 72% Calm Calm -- 30.53 in1033.9 mb 0.00 in0.0 mm 0.00 in0.0 mm 0.00 in0.0 mm
10:15 PM 8.2°F-13.2°C 1.1°F-17.2°C 72% Calm Calm -- 30.53 in1033.9 mb 0.00 in0.0 mm 0.00 in0.0 mm 0.00 in0.0 mm
10:20 PM 8.3°F-13.2°C 0.9°F-17.3°C 71% Calm Calm -- 30.52 in1033.5 mb 0.00 in0.0 mm 0.00 in0.0 mm 0.00 in0.0 mm
10:25 PM 8.5°F-13.1°C 1.4°F-17.0°C 72% Calm Calm -- 30.52 in1033.5 mb 0.00 in0.0 mm 0.00 in0.0 mm 0.00 in0.0 mm
10:30 PM 8.5°F-13.1°C 1.4°F-17.0°C 72% Calm Calm -- 30.52 in1033.5 mb 0.00 in0.0 mm 0.00 in0.0 mm 0.00 in0.0 mm
10:35 PM 8.5°F-13.1°C 1.4°F-17.0°C 72% Calm Calm -- 30.53 in1033.9 mb 0.00 in0.0 mm 0.00 in0.0 mm 0.00 in0.0 mm
10:40 PM 8.6°F-13.0°C 1.2°F-17.1°C 71% Calm Calm -- 30.53 in1033.9 mb 0.00 in0.0 mm 0.00 in0.0 mm 0.00 in0.0 mm
10:45 PM 8.7°F-12.9°C 1.0°F-17.2°C 70% Calm Calm -- 30.52 in1033.5 mb 0.00 in0.0 mm 0.00 in0.0 mm 0.00 in0.0 mm
10:50 PM 8.7°F-12.9°C 1.3°F-17.1°C 71% Calm Calm -- 30.52 in1033.5 mb 0.00 in0.0 mm 0.00 in0.0 mm 0.00 in0.0 mm
10:55 PM 8.8°F-12.9°C 1.3°F-17.1°C 71% Calm Calm -- 30.53 in1033.9 mb 0.00 in0.0 mm 0.00 in0.0 mm 0.00 in0.0 mm
11:00 PM 8.9°F-12.8°C 1.4°F-17.0°C 71% Calm Calm -- 30.52 in1033.5 mb 0.00 in0.0 mm 0.00 in0.0 mm 0.00 in0.0 mm
11:05 PM 8.9°F-12.8°C 1.1°F-17.2°C 70% Calm Calm -- 30.52 in1033.5 mb 0.00 in0.0 mm 0.00 in0.0 mm 0.00 in0.0 mm
11:10 PM 8.9°F-12.8°C 1.1°F-17.2°C 70% Calm Calm -- 30.52 in1033.5 mb 0.00 in0.0 mm 0.00 in0.0 mm 0.00 in0.0 mm
11:15 PM 9.0°F-12.8°C 1.5°F-16.9°C 71% Calm Calm -- 30.52 in1033.5 mb 0.00 in0.0 mm 0.00 in0.0 mm 0.00 in0.0 mm
11:20 PM 9.0°F-12.8°C 1.8°F-16.8°C 72% Calm Calm -- 30.51 in1033.2 mb 0.00 in0.0 mm 0.00 in0.0 mm 0.00 in0.0 mm
11:25 PM 9.0°F-12.8°C 1.8°F-16.8°C 72% Calm Calm -- 30.51 in1033.2 mb 0.00 in0.0 mm 0.00 in0.0 mm 0.00 in0.0 mm
11:30 PM 9.1°F-12.7°C 2.2°F-16.6°C 73% Calm Calm -- 30.51 in1033.2 mb 0.00 in0.0 mm 0.00 in0.0 mm 0.00 in0.0 mm
11:35 PM 9.0°F-12.8°C 2.1°F-16.6°C 73% Calm Calm -- 30.51 in1033.2 mb 0.00 in0.0 mm 0.00 in0.0 mm 0.00 in0.0 mm
11:40 PM 9.0°F-12.8°C 2.1°F-16.6°C 73% Calm Calm -- 30.51 in1033.2 mb 0.00 in0.0 mm 0.00 in0.0 mm 0.00 in0.0 mm
11:45 PM 8.9°F-12.8°C 2.3°F-16.5°C 74% Calm Calm -- 30.51 in1033.2 mb 0.00 in0.0 mm 0.00 in0.0 mm 0.00 in0.0 mm
11:50 PM 8.9°F-12.8°C 2.3°F-16.5°C 74% Calm Calm -- 30.51 in1033.2 mb 0.00 in0.0 mm 0.00 in0.0 mm 0.00 in0.0 mm
11:55 PM 8.8°F-12.9°C 2.2°F-16.6°C 74% Calm Calm -- 30.50 in1032.8 mb 0.00 in0.0 mm 0.00 in0.0 mm 0.00 in0.0 mm